sensor_id;sensor_type;location;lat;lon;timestamp;temperature;humidity
6210;DHT22;3138;52.550;13.148;2023-06-10T00:00:21;14.50;99.90
6210;DHT22;3138;52.550;13.148;2023-06-10T00:02:49;14.50;99.90
6210;DHT22;3138;52.550;13.148;2023-06-10T00:05:16;14.40;99.90
6210;DHT22;3138;52.550;13.148;2023-06-10T00:07:46;14.50;99.90
6210;DHT22;3138;52.550;13.148;2023-06-10T00:10:13;14.40;99.90
6210;DHT22;3138;52.550;13.148;2023-06-10T00:12:41;14.40;99.90
6210;DHT22;3138;52.550;13.148;2023-06-10T00:15:09;14.40;99.90
6210;DHT22;3138;52.550;13.148;2023-06-10T00:17:37;14.30;99.90
6210;DHT22;3138;52.550;13.148;2023-06-10T00:20:07;14.30;99.90
6210;DHT22;3138;52.550;13.148;2023-06-10T00:22:36;14.30;99.90
6210;DHT22;3138;52.550;13.148;2023-06-10T00:25:05;14.20;99.90
6210;DHT22;3138;52.550;13.148;2023-06-10T00:27:33;14.20;99.90
6210;DHT22;3138;52.550;13.148;2023-06-10T00:30:01;14.20;99.90
6210;DHT22;3138;52.550;13.148;2023-06-10T00:32:30;14.10;99.90
6210;DHT22;3138;52.550;13.148;2023-06-10T00:34:56;14.10;99.90
6210;DHT22;3138;52.550;13.148;2023-06-10T00:37:25;14.10;99.90
6210;DHT22;3138;52.550;13.148;2023-06-10T00:39:51;14.00;99.90
6210;DHT22;3138;52.550;13.148;2023-06-10T00:42:19;14.00;99.90
6210;DHT22;3138;52.550;13.148;2023-06-10T00:44:46;13.90;99.90
6210;DHT22;3138;52.550;13.148;2023-06-10T00:47:14;13.90;99.90
6210;DHT22;3138;52.550;13.148;2023-06-10T00:49:41;13.90;99.90
6210;DHT22;3138;52.550;13.148;2023-06-10T00:52:08;13.90;99.90
6210;DHT22;3138;52.550;13.148;2023-06-10T00:54:37;13.90;99.90
6210;DHT22;3138;52.550;13.148;2023-06-10T00:57:04;13.90;99.90
6210;DHT22;3138;52.550;13.148;2023-06-10T00:59:32;13.90;99.90
6210;DHT22;3138;52.550;13.148;2023-06-10T01:01:59;13.80;99.90
6210;DHT22;3138;52.550;13.148;2023-06-10T01:04:27;13.70;99.90
6210;DHT22;3138;52.550;13.148;2023-06-10T01:06:59;13.70;99.90
6210;DHT22;3138;52.550;13.148;2023-06-10T01:09:33;13.70;99.90
6210;DHT22;3138;52.550;13.148;2023-06-10T01:12:12;13.70;99.90
6210;DHT22;3138;52.550;13.148;2023-06-10T01:14:40;13.60;99.90
6210;DHT22;3138;52.550;13.148;2023-06-10T01:17:10;13.60;99.90
6210;DHT22;3138;52.550;13.148;2023-06-10T01:19:38;13.60;99.90
6210;DHT22;3138;52.550;13.148;2023-06-10T01:22:07;13.50;99.90
6210;DHT22;3138;52.550;13.148;2023-06-10T01:24:36;13.50;99.90
6210;DHT22;3138;52.550;13.148;2023-06-10T01:27:09;13.50;99.90
6210;DHT22;3138;52.550;13.148;2023-06-10T01:29:39;13.50;99.90
6210;DHT22;3138;52.550;13.148;2023-06-10T01:32:12;13.50;99.90
6210;DHT22;3138;52.550;13.148;2023-06-10T01:34:42;13.40;99.90
6210;DHT22;3138;52.550;13.148;2023-06-10T01:37:13;13.40;99.90
6210;DHT22;3138;52.550;13.148;2023-06-10T01:39:42;13.50;99.90
6210;DHT22;3138;52.550;13.148;2023-06-10T01:42:10;13.40;99.90
6210;DHT22;3138;52.550;13.148;2023-06-10T01:44:39;13.40;99.90
6210;DHT22;3138;52.550;13.148;2023-06-10T01:47:07;13.40;99.90
6210;DHT22;3138;52.550;13.148;2023-06-10T01:49:34;13.30;99.90
6210;DHT22;3138;52.550;13.148;2023-06-10T01:52:01;13.30;99.90
6210;DHT22;3138;52.550;13.148;2023-06-10T01:54:29;13.30;99.90
6210;DHT22;3138;52.550;13.148;2023-06-10T01:56:56;13.30;99.90
6210;DHT22;3138;52.550;13.148;2023-06-10T01:59:23;13.30;99.90
6210;DHT22;3138;52.550;13.148;2023-06-10T02:01:49;13.30;99.90
6210;DHT22;3138;52.550;13.148;2023-06-10T02:04:16;13.20;99.90
6210;DHT22;3138;52.550;13.148;2023-06-10T02:06:44;13.20;99.90
6210;DHT22;3138;52.550;13.148;2023-06-10T02:09:10;13.20;99.90
6210;DHT22;3138;52.550;13.148;2023-06-10T02:11:39;13.20;99.90
6210;DHT22;3138;52.550;13.148;2023-06-10T02:14:06;13.20;99.90
6210;DHT22;3138;52.550;13.148;2023-06-10T02:16:32;13.20;99.90
6210;DHT22;3138;52.550;13.148;2023-06-10T02:19:00;13.20;99.90
6210;DHT22;3138;52.550;13.148;2023-06-10T02:21:28;13.10;99.90
6210;DHT22;3138;52.550;13.148;2023-06-10T02:23:55;13.10;99.90
6210;DHT22;3138;52.550;13.148;2023-06-10T02:26:22;13.10;99.90
6210;DHT22;3138;52.550;13.148;2023-06-10T02:28:52;13.00;99.90
6210;DHT22;3138;52.550;13.148;2023-06-10T02:31:19;13.00;99.90
6210;DHT22;3138;52.550;13.148;2023-06-10T02:33:46;13.00;99.90
6210;DHT22;3138;52.550;13.148;2023-06-10T02:36:13;13.00;99.90
6210;DHT22;3138;52.550;13.148;2023-06-10T02:38:41;13.00;99.90
6210;DHT22;3138;52.550;13.148;2023-06-10T02:41:08;13.00;99.90
6210;DHT22;3138;52.550;13.148;2023-06-10T02:43:35;13.00;99.90
6210;DHT22;3138;52.550;13.148;2023-06-10T02:46:03;13.00;99.90
6210;DHT22;3138;52.550;13.148;2023-06-10T02:48:30;13.00;99.90
6210;DHT22;3138;52.550;13.148;2023-06-10T02:50:56;12.90;99.90
6210;DHT22;3138;52.550;13.148;2023-06-10T02:53:23;12.90;99.90
6210;DHT22;3138;52.550;13.148;2023-06-10T02:55:50;12.90;99.90
6210;DHT22;3138;52.550;13.148;2023-06-10T02:58:17;12.90;99.90
6210;DHT22;3138;52.550;13.148;2023-06-10T03:00:44;12.90;99.90
6210;DHT22;3138;52.550;13.148;2023-06-10T03:03:12;13.00;99.90
6210;DHT22;3138;52.550;13.148;2023-06-10T03:05:39;12.90;99.90
6210;DHT22;3138;52.550;13.148;2023-06-10T03:08:06;13.00;99.90
6210;DHT22;3138;52.550;13.148;2023-06-10T03:10:32;13.10;99.90
6210;DHT22;3138;52.550;13.148;2023-06-10T03:12:59;13.00;99.90
6210;DHT22;3138;52.550;13.148;2023-06-10T03:15:26;13.00;99.90
6210;DHT22;3138;52.550;13.148;2023-06-10T03:17:54;13.10;99.90
6210;DHT22;3138;52.550;13.148;2023-06-10T03:20:22;13.10;99.90
6210;DHT22;3138;52.550;13.148;2023-06-10T03:22:51;13.20;99.90
6210;DHT22;3138;52.550;13.148;2023-06-10T03:25:18;13.20;99.90
6210;DHT22;3138;52.550;13.148;2023-06-10T03:27:46;13.10;99.90
6210;DHT22;3138;52.550;13.148;2023-06-10T03:30:13;13.20;99.90
6210;DHT22;3138;52.550;13.148;2023-06-10T03:32:40;13.20;99.90
6210;DHT22;3138;52.550;13.148;2023-06-10T03:35:08;13.20;99.90
6210;DHT22;3138;52.550;13.148;2023-06-10T03:37:36;13.20;99.90
6210;DHT22;3138;52.550;13.148;2023-06-10T03:40:04;13.20;99.90
6210;DHT22;3138;52.550;13.148;2023-06-10T03:42:32;13.30;99.90
6210;DHT22;3138;52.550;13.148;2023-06-10T03:44:58;13.40;99.90
6210;DHT22;3138;52.550;13.148;2023-06-10T03:47:25;13.30;99.90
6210;DHT22;3138;52.550;13.148;2023-06-10T03:49:52;13.30;99.90
6210;DHT22;3138;52.550;13.148;2023-06-10T03:52:19;13.40;99.90
6210;DHT22;3138;52.550;13.148;2023-06-10T03:54:47;13.60;99.90
6210;DHT22;3138;52.550;13.148;2023-06-10T03:57:14;14.00;99.90
6210;DHT22;3138;52.550;13.148;2023-06-10T03:59:41;14.40;99.90
6210;DHT22;3138;52.550;13.148;2023-06-10T04:02:08;14.60;99.90
6210;DHT22;3138;52.550;13.148;2023-06-10T04:04:35;14.90;99.90
6210;DHT22;3138;52.550;13.148;2023-06-10T04:07:03;15.20;99.90
6210;DHT22;3138;52.550;13.148;2023-06-10T04:09:30;15.30;99.90
6210;DHT22;3138;52.550;13.148;2023-06-10T04:11:59;15.10;99.90
6210;DHT22;3138;52.550;13.148;2023-06-10T04:14:26;14.90;99.90
6210;DHT22;3138;52.550;13.148;2023-06-10T04:16:53;14.90;99.90
6210;DHT22;3138;52.550;13.148;2023-06-10T04:19:20;14.90;99.90
6210;DHT22;3138;52.550;13.148;2023-06-10T04:21:46;15.00;99.90
6210;DHT22;3138;52.550;13.148;2023-06-10T04:24:13;15.10;99.90
6210;DHT22;3138;52.550;13.148;2023-06-10T04:26:40;15.10;99.90
6210;DHT22;3138;52.550;13.148;2023-06-10T04:29:08;15.20;99.90
6210;DHT22;3138;52.550;13.148;2023-06-10T04:31:35;15.40;99.90
6210;DHT22;3138;52.550;13.148;2023-06-10T04:34:02;15.20;99.90
6210;DHT22;3138;52.550;13.148;2023-06-10T04:36:29;15.20;99.90
6210;DHT22;3138;52.550;13.148;2023-06-10T04:38:56;15.00;99.90
6210;DHT22;3138;52.550;13.148;2023-06-10T04:41:22;14.90;99.90
6210;DHT22;3138;52.550;13.148;2023-06-10T04:43:51;15.10;99.90
6210;DHT22;3138;52.550;13.148;2023-06-10T04:46:21;15.40;99.90
6210;DHT22;3138;52.550;13.148;2023-06-10T04:48:47;15.80;99.90
6210;DHT22;3138;52.550;13.148;2023-06-10T04:51:14;15.80;99.90
6210;DHT22;3138;52.550;13.148;2023-06-10T04:53:42;15.90;99.90
6210;DHT22;3138;52.550;13.148;2023-06-10T04:56:09;16.20;99.90
6210;DHT22;3138;52.550;13.148;2023-06-10T04:58:36;16.10;99.90
6210;DHT22;3138;52.550;13.148;2023-06-10T05:01:03;16.30;99.90
6210;DHT22;3138;52.550;13.148;2023-06-10T05:03:31;16.50;99.90
6210;DHT22;3138;52.550;13.148;2023-06-10T05:05:58;16.70;99.90
6210;DHT22;3138;52.550;13.148;2023-06-10T05:08:24;16.50;99.90
6210;DHT22;3138;52.550;13.148;2023-06-10T05:10:51;16.80;99.90
6210;DHT22;3138;52.550;13.148;2023-06-10T05:13:18;17.10;99.90
6210;DHT22;3138;52.550;13.148;2023-06-10T05:15:45;17.10;99.90
6210;DHT22;3138;52.550;13.148;2023-06-10T05:18:12;17.00;99.90
6210;DHT22;3138;52.550;13.148;2023-06-10T05:20:40;17.10;99.90
6210;DHT22;3138;52.550;13.148;2023-06-10T05:23:07;17.10;99.90
6210;DHT22;3138;52.550;13.148;2023-06-10T05:25:34;17.30;99.90
6210;DHT22;3138;52.550;13.148;2023-06-10T05:28:01;17.40;99.90
6210;DHT22;3138;52.550;13.148;2023-06-10T05:30:28;17.60;99.90
6210;DHT22;3138;52.550;13.148;2023-06-10T05:32:55;18.00;99.90
6210;DHT22;3138;52.550;13.148;2023-06-10T05:35:22;17.80;99.90
6210;DHT22;3138;52.550;13.148;2023-06-10T05:37:50;18.10;99.90
6210;DHT22;3138;52.550;13.148;2023-06-10T05:40:17;18.00;99.90
6210;DHT22;3138;52.550;13.148;2023-06-10T05:42:44;18.10;99.90
6210;DHT22;3138;52.550;13.148;2023-06-10T05:45:11;17.90;99.90
6210;DHT22;3138;52.550;13.148;2023-06-10T05:47:38;18.50;99.90
6210;DHT22;3138;52.550;13.148;2023-06-10T05:50:06;18.60;99.90
6210;DHT22;3138;52.550;13.148;2023-06-10T05:52:34;18.70;99.90
6210;DHT22;3138;52.550;13.148;2023-06-10T05:55:02;18.60;99.90
6210;DHT22;3138;52.550;13.148;2023-06-10T05:57:29;18.80;99.90
6210;DHT22;3138;52.550;13.148;2023-06-10T05:59:56;18.60;99.90
6210;DHT22;3138;52.550;13.148;2023-06-10T06:02:23;18.60;99.90
6210;DHT22;3138;52.550;13.148;2023-06-10T06:04:49;18.70;99.90
6210;DHT22;3138;52.550;13.148;2023-06-10T06:07:16;19.20;99.90
6210;DHT22;3138;52.550;13.148;2023-06-10T06:09:46;19.00;99.90
6210;DHT22;3138;52.550;13.148;2023-06-10T06:12:14;19.10;99.90
6210;DHT22;3138;52.550;13.148;2023-06-10T06:14:41;18.90;99.90
6210;DHT22;3138;52.550;13.148;2023-06-10T06:17:08;18.90;99.90
6210;DHT22;3138;52.550;13.148;2023-06-10T06:19:34;19.00;99.90
6210;DHT22;3138;52.550;13.148;2023-06-10T06:22:01;19.10;99.90
6210;DHT22;3138;52.550;13.148;2023-06-10T06:24:29;19.00;99.90
6210;DHT22;3138;52.550;13.148;2023-06-10T06:26:55;19.00;99.90
6210;DHT22;3138;52.550;13.148;2023-06-10T06:29:24;19.10;99.90
6210;DHT22;3138;52.550;13.148;2023-06-10T06:31:50;19.30;99.90
6210;DHT22;3138;52.550;13.148;2023-06-10T06:34:17;19.60;99.90
6210;DHT22;3138;52.550;13.148;2023-06-10T06:36:44;19.90;99.90
6210;DHT22;3138;52.550;13.148;2023-06-10T06:39:11;20.10;99.90
6210;DHT22;3138;52.550;13.148;2023-06-10T06:41:38;19.10;99.90
6210;DHT22;3138;52.550;13.148;2023-06-10T06:44:05;18.90;99.90
6210;DHT22;3138;52.550;13.148;2023-06-10T06:46:33;18.90;99.90
6210;DHT22;3138;52.550;13.148;2023-06-10T06:48:59;19.40;99.90
6210;DHT22;3138;52.550;13.148;2023-06-10T06:51:27;19.50;99.90
6210;DHT22;3138;52.550;13.148;2023-06-10T06:53:53;19.50;99.90
6210;DHT22;3138;52.550;13.148;2023-06-10T06:56:24;19.50;99.90
6210;DHT22;3138;52.550;13.148;2023-06-10T06:58:52;19.30;99.90
6210;DHT22;3138;52.550;13.148;2023-06-10T07:01:19;20.10;99.90
6210;DHT22;3138;52.550;13.148;2023-06-10T07:03:47;20.50;99.90
6210;DHT22;3138;52.550;13.148;2023-06-10T07:06:14;20.50;99.90
6210;DHT22;3138;52.550;13.148;2023-06-10T07:08:41;20.40;99.90
6210;DHT22;3138;52.550;13.148;2023-06-10T07:11:08;20.20;99.90
6210;DHT22;3138;52.550;13.148;2023-06-10T07:13:34;20.30;99.90
6210;DHT22;3138;52.550;13.148;2023-06-10T07:16:01;20.60;99.90
6210;DHT22;3138;52.550;13.148;2023-06-10T07:18:28;20.40;99.90
6210;DHT22;3138;52.550;13.148;2023-06-10T07:20:56;20.30;99.90
6210;DHT22;3138;52.550;13.148;2023-06-10T07:23:23;20.60;98.90
6210;DHT22;3138;52.550;13.148;2023-06-10T07:25:50;20.60;97.10
6210;DHT22;3138;52.550;13.148;2023-06-10T07:28:17;20.90;98.40
6210;DHT22;3138;52.550;13.148;2023-06-10T07:30:44;21.60;95.80
6210;DHT22;3138;52.550;13.148;2023-06-10T07:33:11;21.70;92.40
6210;DHT22;3138;52.550;13.148;2023-06-10T07:35:38;21.50;91.10
6210;DHT22;3138;52.550;13.148;2023-06-10T07:38:06;21.40;91.80
6210;DHT22;3138;52.550;13.148;2023-06-10T07:40:32;21.80;90.40
6210;DHT22;3138;52.550;13.148;2023-06-10T07:42:59;22.00;91.10
6210;DHT22;3138;52.550;13.148;2023-06-10T07:45:26;21.90;90.30
6210;DHT22;3138;52.550;13.148;2023-06-10T07:47:53;22.20;88.60
6210;DHT22;3138;52.550;13.148;2023-06-10T07:50:21;22.00;85.10
6210;DHT22;3138;52.550;13.148;2023-06-10T07:52:48;21.70;86.40
6210;DHT22;3138;52.550;13.148;2023-06-10T07:55:16;21.60;88.80
6210;DHT22;3138;52.550;13.148;2023-06-10T07:57:43;21.80;90.90
6210;DHT22;3138;52.550;13.148;2023-06-10T08:00:10;21.80;89.20
6210;DHT22;3138;52.550;13.148;2023-06-10T08:02:37;22.00;89.60
6210;DHT22;3138;52.550;13.148;2023-06-10T08:05:05;22.20;89.00
6210;DHT22;3138;52.550;13.148;2023-06-10T08:07:31;22.90;88.60
6210;DHT22;3138;52.550;13.148;2023-06-10T08:09:58;23.70;86.20
6210;DHT22;3138;52.550;13.148;2023-06-10T08:12:26;24.00;74.60
6210;DHT22;3138;52.550;13.148;2023-06-10T08:14:53;24.40;75.30
6210;DHT22;3138;52.550;13.148;2023-06-10T08:17:20;25.10;71.50
6210;DHT22;3138;52.550;13.148;2023-06-10T08:19:47;25.00;68.10
6210;DHT22;3138;52.550;13.148;2023-06-10T08:22:14;24.10;66.60
6210;DHT22;3138;52.550;13.148;2023-06-10T08:24:41;24.20;63.80
6210;DHT22;3138;52.550;13.148;2023-06-10T08:27:08;24.60;60.90
6210;DHT22;3138;52.550;13.148;2023-06-10T08:29:37;24.60;59.20
6210;DHT22;3138;52.550;13.148;2023-06-10T08:32:04;24.70;61.60
6210;DHT22;3138;52.550;13.148;2023-06-10T08:34:33;24.90;59.70
6210;DHT22;3138;52.550;13.148;2023-06-10T08:37:00;24.70;59.90
6210;DHT22;3138;52.550;13.148;2023-06-10T08:39:27;24.90;58.80
6210;DHT22;3138;52.550;13.148;2023-06-10T08:42:07;24.80;58.00
6210;DHT22;3138;52.550;13.148;2023-06-10T08:44:39;24.90;59.20
6210;DHT22;3138;52.550;13.148;2023-06-10T08:47:10;24.60;57.10
6210;DHT22;3138;52.550;13.148;2023-06-10T08:49:44;24.00;59.30
6210;DHT22;3138;52.550;13.148;2023-06-10T08:52:14;24.00;62.90
6210;DHT22;3138;52.550;13.148;2023-06-10T08:54:43;24.00;61.70
6210;DHT22;3138;52.550;13.148;2023-06-10T08:57:12;24.20;60.70
6210;DHT22;3138;52.550;13.148;2023-06-10T08:59:41;24.80;63.90
6210;DHT22;3138;52.550;13.148;2023-06-10T09:02:08;24.90;61.00
6210;DHT22;3138;52.550;13.148;2023-06-10T09:04:36;25.20;58.40
6210;DHT22;3138;52.550;13.148;2023-06-10T09:07:04;25.40;58.30
6210;DHT22;3138;52.550;13.148;2023-06-10T09:09:32;24.90;57.80
6210;DHT22;3138;52.550;13.148;2023-06-10T09:12:01;25.00;56.80
6210;DHT22;3138;52.550;13.148;2023-06-10T09:14:28;24.50;58.50
6210;DHT22;3138;52.550;13.148;2023-06-10T09:16:57;24.90;56.80
6210;DHT22;3138;52.550;13.148;2023-06-10T09:19:24;24.90;56.60
6210;DHT22;3138;52.550;13.148;2023-06-10T09:21:51;24.80;57.20
6210;DHT22;3138;52.550;13.148;2023-06-10T09:24:18;24.60;58.90
6210;DHT22;3138;52.550;13.148;2023-06-10T09:26:45;24.60;55.90
6210;DHT22;3138;52.550;13.148;2023-06-10T09:29:12;24.60;58.10
6210;DHT22;3138;52.550;13.148;2023-06-10T09:31:39;24.50;58.80
6210;DHT22;3138;52.550;13.148;2023-06-10T09:34:09;23.80;58.60
6210;DHT22;3138;52.550;13.148;2023-06-10T09:36:38;23.50;59.40
6210;DHT22;3138;52.550;13.148;2023-06-10T09:39:05;23.80;62.50
6210;DHT22;3138;52.550;13.148;2023-06-10T09:41:40;23.60;60.40
6210;DHT22;3138;52.550;13.148;2023-06-10T09:44:12;23.60;61.50
6210;DHT22;3138;52.550;13.148;2023-06-10T09:46:40;23.70;63.50
6210;DHT22;3138;52.550;13.148;2023-06-10T09:49:08;23.70;62.80
6210;DHT22;3138;52.550;13.148;2023-06-10T09:51:35;23.70;63.90
6210;DHT22;3138;52.550;13.148;2023-06-10T09:54:03;23.50;63.60
6210;DHT22;3138;52.550;13.148;2023-06-10T09:56:33;23.40;62.70
6210;DHT22;3138;52.550;13.148;2023-06-10T09:59:01;23.30;64.20
6210;DHT22;3138;52.550;13.148;2023-06-10T10:01:29;23.10;65.10
6210;DHT22;3138;52.550;13.148;2023-06-10T10:03:58;23.10;68.20
6210;DHT22;3138;52.550;13.148;2023-06-10T10:06:26;23.40;68.90
6210;DHT22;3138;52.550;13.148;2023-06-10T10:08:54;23.30;66.80
6210;DHT22;3138;52.550;13.148;2023-06-10T10:11:22;22.90;71.00
6210;DHT22;3138;52.550;13.148;2023-06-10T10:13:51;22.50;75.80
6210;DHT22;3138;52.550;13.148;2023-06-10T10:16:20;22.50;85.40
6210;DHT22;3138;52.550;13.148;2023-06-10T10:18:52;22.30;82.60
6210;DHT22;3138;52.550;13.148;2023-06-10T10:21:23;22.20;86.10
6210;DHT22;3138;52.550;13.148;2023-06-10T10:23:53;22.00;87.00
6210;DHT22;3138;52.550;13.148;2023-06-10T10:26:25;22.00;88.90
6210;DHT22;3138;52.550;13.148;2023-06-10T10:29:02;22.10;89.00
6210;DHT22;3138;52.550;13.148;2023-06-10T10:31:32;22.00;90.70
6210;DHT22;3138;52.550;13.148;2023-06-10T10:34:04;22.10;90.50
6210;DHT22;3138;52.550;13.148;2023-06-10T10:36:33;22.10;91.40
6210;DHT22;3138;52.550;13.148;2023-06-10T10:39:01;22.10;90.70
6210;DHT22;3138;52.550;13.148;2023-06-10T10:41:30;22.10;90.30
6210;DHT22;3138;52.550;13.148;2023-06-10T10:43:58;22.10;88.90
6210;DHT22;3138;52.550;13.148;2023-06-10T10:46:25;22.00;86.60
6210;DHT22;3138;52.550;13.148;2023-06-10T10:48:54;21.90;84.30
6210;DHT22;3138;52.550;13.148;2023-06-10T10:51:23;21.90;83.30
6210;DHT22;3138;52.550;13.148;2023-06-10T10:54:11;21.80;80.50
6210;DHT22;3138;52.550;13.148;2023-06-10T10:56:39;21.80;80.00
6210;DHT22;3138;52.550;13.148;2023-06-10T10:59:06;21.90;79.70
6210;DHT22;3138;52.550;13.148;2023-06-10T11:01:40;21.70;77.60
6210;DHT22;3138;52.550;13.148;2023-06-10T11:04:08;21.70;78.80
6210;DHT22;3138;52.550;13.148;2023-06-10T11:06:35;21.60;76.50
6210;DHT22;3138;52.550;13.148;2023-06-10T11:09:26;21.60;78.90
6210;DHT22;3138;52.550;13.148;2023-06-10T11:11:57;21.60;79.60
6210;DHT22;3138;52.550;13.148;2023-06-10T11:14:27;21.60;81.80
6210;DHT22;3138;52.550;13.148;2023-06-10T11:16:56;21.50;82.20
6210;DHT22;3138;52.550;13.148;2023-06-10T11:19:33;21.50;83.70
6210;DHT22;3138;52.550;13.148;2023-06-10T11:22:01;21.60;83.90
6210;DHT22;3138;52.550;13.148;2023-06-10T11:24:30;21.50;81.00
6210;DHT22;3138;52.550;13.148;2023-06-10T11:27:15;21.60;82.00
6210;DHT22;3138;52.550;13.148;2023-06-10T11:29:58;21.60;81.50
6210;DHT22;3138;52.550;13.148;2023-06-10T11:32:29;21.50;81.80
6210;DHT22;3138;52.550;13.148;2023-06-10T11:34:57;21.60;83.90
6210;DHT22;3138;52.550;13.148;2023-06-10T11:37:24;21.70;85.70
6210;DHT22;3138;52.550;13.148;2023-06-10T11:39:53;21.60;85.80
6210;DHT22;3138;52.550;13.148;2023-06-10T11:42:21;22.00;87.30
6210;DHT22;3138;52.550;13.148;2023-06-10T11:44:49;21.90;83.50
6210;DHT22;3138;52.550;13.148;2023-06-10T11:47:16;21.80;83.90
6210;DHT22;3138;52.550;13.148;2023-06-10T11:49:43;21.80;86.10
6210;DHT22;3138;52.550;13.148;2023-06-10T11:52:11;22.00;84.10
6210;DHT22;3138;52.550;13.148;2023-06-10T11:54:38;22.20;85.00
6210;DHT22;3138;52.550;13.148;2023-06-10T11:57:06;22.20;81.80
6210;DHT22;3138;52.550;13.148;2023-06-10T11:59:34;22.50;81.60
6210;DHT22;3138;52.550;13.148;2023-06-10T12:02:01;22.60;78.70
6210;DHT22;3138;52.550;13.148;2023-06-10T12:04:28;22.70;77.70
6210;DHT22;3138;52.550;13.148;2023-06-10T12:06:55;22.80;76.10
6210;DHT22;3138;52.550;13.148;2023-06-10T12:09:23;23.10;76.90
6210;DHT22;3138;52.550;13.148;2023-06-10T12:11:51;23.40;76.40
6210;DHT22;3138;52.550;13.148;2023-06-10T12:14:53;23.60;74.60
6210;DHT22;3138;52.550;13.148;2023-06-10T12:17:21;23.40;70.10
6210;DHT22;3138;52.550;13.148;2023-06-10T12:19:49;23.40;71.20
6210;DHT22;3138;52.550;13.148;2023-06-10T12:22:16;23.70;70.00
6210;DHT22;3138;52.550;13.148;2023-06-10T12:24:45;23.80;66.30
6210;DHT22;3138;52.550;13.148;2023-06-10T12:27:12;23.60;64.80
6210;DHT22;3138;52.550;13.148;2023-06-10T12:29:39;24.00;62.50
6210;DHT22;3138;52.550;13.148;2023-06-10T12:32:18;24.20;62.00
6210;DHT22;3138;52.550;13.148;2023-06-10T12:34:45;24.50;62.20
6210;DHT22;3138;52.550;13.148;2023-06-10T12:37:13;24.50;56.50
6210;DHT22;3138;52.550;13.148;2023-06-10T12:39:40;24.80;55.20
6210;DHT22;3138;52.550;13.148;2023-06-10T12:42:08;24.70;54.60
6210;DHT22;3138;52.550;13.148;2023-06-10T12:44:39;24.70;53.50
6210;DHT22;3138;52.550;13.148;2023-06-10T12:47:10;25.20;56.50
6210;DHT22;3138;52.550;13.148;2023-06-10T12:49:39;24.80;55.00
6210;DHT22;3138;52.550;13.148;2023-06-10T12:52:06;25.10;57.30
6210;DHT22;3138;52.550;13.148;2023-06-10T12:54:34;25.20;55.20
6210;DHT22;3138;52.550;13.148;2023-06-10T12:57:01;25.70;52.40
6210;DHT22;3138;52.550;13.148;2023-06-10T12:59:28;25.80;52.00
6210;DHT22;3138;52.550;13.148;2023-06-10T13:01:55;25.80;48.50
6210;DHT22;3138;52.550;13.148;2023-06-10T13:04:22;26.00;48.80
6210;DHT22;3138;52.550;13.148;2023-06-10T13:06:50;26.40;47.00
6210;DHT22;3138;52.550;13.148;2023-06-10T13:09:17;26.40;44.70
6210;DHT22;3138;52.550;13.148;2023-06-10T13:11:44;26.60;44.00
6210;DHT22;3138;52.550;13.148;2023-06-10T13:14:11;26.90;39.40
6210;DHT22;3138;52.550;13.148;2023-06-10T13:16:38;27.00;38.00
6210;DHT22;3138;52.550;13.148;2023-06-10T13:19:06;27.00;38.30
6210;DHT22;3138;52.550;13.148;2023-06-10T13:21:33;27.10;38.30
6210;DHT22;3138;52.550;13.148;2023-06-10T13:24:01;27.20;36.10
6210;DHT22;3138;52.550;13.148;2023-06-10T13:26:29;27.40;34.50
6210;DHT22;3138;52.550;13.148;2023-06-10T13:28:55;27.70;36.40
6210;DHT22;3138;52.550;13.148;2023-06-10T13:31:22;28.10;35.80
6210;DHT22;3138;52.550;13.148;2023-06-10T13:33:50;28.20;33.90
6210;DHT22;3138;52.550;13.148;2023-06-10T13:36:17;28.10;35.50
6210;DHT22;3138;52.550;13.148;2023-06-10T13:38:44;28.10;35.30
6210;DHT22;3138;52.550;13.148;2023-06-10T13:41:14;28.10;36.90
6210;DHT22;3138;52.550;13.148;2023-06-10T13:43:41;27.80;36.60
6210;DHT22;3138;52.550;13.148;2023-06-10T13:46:08;27.80;37.80
6210;DHT22;3138;52.550;13.148;2023-06-10T13:48:34;27.70;38.00
6210;DHT22;3138;52.550;13.148;2023-06-10T13:51:01;28.10;38.80
6210;DHT22;3138;52.550;13.148;2023-06-10T13:53:28;28.50;39.30
6210;DHT22;3138;52.550;13.148;2023-06-10T13:55:55;28.50;35.60
6210;DHT22;3138;52.550;13.148;2023-06-10T13:58:23;28.50;35.00
6210;DHT22;3138;52.550;13.148;2023-06-10T14:00:50;28.80;33.50
6210;DHT22;3138;52.550;13.148;2023-06-10T14:03:17;28.90;32.60
6210;DHT22;3138;52.550;13.148;2023-06-10T14:05:44;29.00;32.40
6210;DHT22;3138;52.550;13.148;2023-06-10T14:08:11;28.90;28.20
6210;DHT22;3138;52.550;13.148;2023-06-10T14:10:38;28.70;28.90
6210;DHT22;3138;52.550;13.148;2023-06-10T14:13:05;28.70;28.80
6210;DHT22;3138;52.550;13.148;2023-06-10T14:15:33;28.70;26.30
6210;DHT22;3138;52.550;13.148;2023-06-10T14:18:00;28.50;28.00
6210;DHT22;3138;52.550;13.148;2023-06-10T14:20:27;28.50;28.10
6210;DHT22;3138;52.550;13.148;2023-06-10T14:22:57;28.60;27.10
6210;DHT22;3138;52.550;13.148;2023-06-10T14:25:23;28.40;24.00
6210;DHT22;3138;52.550;13.148;2023-06-10T14:27:51;28.60;23.40
6210;DHT22;3138;52.550;13.148;2023-06-10T14:30:17;28.90;23.60
6210;DHT22;3138;52.550;13.148;2023-06-10T14:32:46;28.90;22.50
6210;DHT22;3138;52.550;13.148;2023-06-10T14:35:12;28.90;22.80
6210;DHT22;3138;52.550;13.148;2023-06-10T14:37:40;28.70;22.30
6210;DHT22;3138;52.550;13.148;2023-06-10T14:40:07;28.60;24.80
6210;DHT22;3138;52.550;13.148;2023-06-10T14:42:34;28.50;23.40
6210;DHT22;3138;52.550;13.148;2023-06-10T14:45:01;28.70;25.40
6210;DHT22;3138;52.550;13.148;2023-06-10T14:47:28;28.50;22.20
6210;DHT22;3138;52.550;13.148;2023-06-10T14:49:56;28.70;22.30
6210;DHT22;3138;52.550;13.148;2023-06-10T14:52:23;28.50;21.40
6210;DHT22;3138;52.550;13.148;2023-06-10T14:54:50;28.80;20.30
6210;DHT22;3138;52.550;13.148;2023-06-10T14:57:17;28.50;16.90
6210;DHT22;3138;52.550;13.148;2023-06-10T14:59:43;28.60;16.60
6210;DHT22;3138;52.550;13.148;2023-06-10T15:02:10;28.40;15.10
6210;DHT22;3138;52.550;13.148;2023-06-10T15:04:37;28.40;14.10
6210;DHT22;3138;52.550;13.148;2023-06-10T15:07:05;28.60;15.70
6210;DHT22;3138;52.550;13.148;2023-06-10T15:09:32;28.50;13.30
6210;DHT22;3138;52.550;13.148;2023-06-10T15:11:59;28.60;15.40
6210;DHT22;3138;52.550;13.148;2023-06-10T15:14:26;28.60;13.10
6210;DHT22;3138;52.550;13.148;2023-06-10T15:16:53;28.70;13.10
6210;DHT22;3138;52.550;13.148;2023-06-10T15:19:21;28.90;12.00
6210;DHT22;3138;52.550;13.148;2023-06-10T15:21:48;28.90;12.00
6210;DHT22;3138;52.550;13.148;2023-06-10T15:24:16;28.50;10.50
6210;DHT22;3138;52.550;13.148;2023-06-10T15:26:43;28.40;11.20
6210;DHT22;3138;52.550;13.148;2023-06-10T15:29:09;28.70;11.00
6210;DHT22;3138;52.550;13.148;2023-06-10T15:31:36;28.70;11.20
6210;DHT22;3138;52.550;13.148;2023-06-10T15:34:03;28.50;10.80
6210;DHT22;3138;52.550;13.148;2023-06-10T15:36:32;28.70;9.70
6210;DHT22;3138;52.550;13.148;2023-06-10T15:39:01;28.50;8.00
6210;DHT22;3138;52.550;13.148;2023-06-10T15:41:29;28.60;8.60
6210;DHT22;3138;52.550;13.148;2023-06-10T15:43:56;28.60;7.60
6210;DHT22;3138;52.550;13.148;2023-06-10T15:46:25;28.60;7.40
6210;DHT22;3138;52.550;13.148;2023-06-10T15:48:52;28.60;6.30
6210;DHT22;3138;52.550;13.148;2023-06-10T15:51:20;28.80;7.60